createdAt,value
2018-01-24T00:00:17.919Z,8.40
2018-01-24T00:02:45.602Z,8.40
2018-01-24T00:05:13.330Z,8.40
2018-01-24T00:07:41.001Z,8.40
2018-01-24T00:10:08.746Z,8.40
2018-01-24T00:12:36.402Z,8.40
2018-01-24T00:15:04.150Z,8.40
2018-01-24T00:17:31.827Z,8.40
2018-01-24T00:19:59.586Z,8.40
2018-01-24T00:22:27.249Z,8.50
2018-01-24T00:24:54.954Z,8.50
2018-01-24T00:27:22.622Z,8.50
2018-01-24T00:29:51.094Z,8.50
2018-01-24T00:32:19.525Z,8.50
2018-01-24T00:34:47.206Z,8.50
2018-01-24T00:37:14.935Z,8.50
2018-01-24T00:39:42.629Z,8.50
2018-01-24T00:42:10.358Z,8.50
2018-01-24T00:44:38.022Z,8.50
2018-01-24T00:47:05.803Z,8.50
2018-01-24T00:49:34.254Z,8.50
2018-01-24T00:52:01.974Z,8.50
2018-01-24T00:54:30.415Z,8.50
2018-01-24T00:56:58.101Z,8.50
2018-01-24T00:59:25.786Z,8.60
2018-01-24T01:01:54.254Z,8.50
2018-01-24T01:04:22.669Z,8.50
2018-01-24T01:06:50.406Z,8.50
2018-01-24T01:09:18.101Z,8.50
2018-01-24T01:11:45.804Z,8.40
2018-01-24T01:14:13.491Z,8.50
2018-01-24T01:16:41.222Z,8.50
2018-01-24T01:19:08.887Z,8.50
2018-01-24T01:21:37.357Z,8.50
2018-01-24T01:24:05.802Z,8.50
2018-01-24T01:26:34.257Z,8.40
2018-01-24T01:29:01.912Z,8.40
2018-01-24T01:31:29.620Z,8.50
2018-01-24T01:33:57.265Z,8.50
2018-01-24T01:36:24.957Z,8.50
2018-01-24T01:38:53.393Z,8.60
2018-01-24T01:41:21.086Z,8.60
2018-01-24T01:43:49.507Z,8.60
2018-01-24T01:46:17.255Z,8.60
2018-01-24T01:48:44.903Z,8.60
2018-01-24T01:51:13.422Z,8.60
2018-01-24T01:53:41.110Z,8.50
2018-01-24T01:56:08.815Z,8.50
2018-01-24T01:58:36.470Z,8.50
2018-01-24T02:01:04.207Z,8.50
2018-01-24T02:03:32.644Z,8.60
2018-01-24T02:06:00.326Z,8.60
2018-01-24T02:08:27.998Z,8.50
2018-01-24T02:10:55.699Z,8.50
2018-01-24T02:13:23.359Z,8.50
2018-01-24T02:15:51.103Z,8.50
2018-01-24T02:18:18.790Z,8.50
2018-01-24T02:20:46.493Z,8.50
2018-01-24T02:23:14.161Z,8.50
2018-01-24T02:25:41.896Z,8.50
2018-01-24T02:28:09.596Z,8.50
2018-01-24T02:30:38.098Z,8.50
2018-01-24T02:33:05.746Z,8.40
2018-01-24T02:35:33.446Z,8.40
2018-01-24T02:38:01.117Z,8.40
2018-01-24T02:40:28.806Z,8.40
2018-01-24T02:42:57.243Z,8.40
2018-01-24T02:45:25.168Z,8.40
2018-01-24T02:47:52.907Z,8.40
2018-01-24T02:50:21.330Z,8.30
2018-01-24T02:52:49.012Z,8.30
2018-01-24T02:55:16.659Z,8.40
2018-01-24T02:57:44.356Z,8.40
2018-01-24T03:00:12.047Z,8.40
2018-01-24T03:02:39.746Z,8.40
2018-01-24T03:05:07.386Z,8.40
2018-01-24T03:07:35.095Z,8.40
2018-01-24T03:10:02.759Z,8.50
2018-01-24T03:12:31.213Z,8.50
2018-01-24T03:14:58.892Z,8.50
2018-01-24T03:17:26.582Z,8.50
2018-01-24T03:19:54.226Z,8.50
2018-01-24T03:22:22.723Z,8.50
2018-01-24T03:24:50.390Z,8.50
2018-01-24T03:27:18.132Z,8.50
2018-01-24T03:29:46.539Z,8.50
2018-01-24T03:32:14.249Z,8.50
2018-01-24T03:34:42.669Z,8.50
2018-01-24T03:37:10.359Z,8.50
2018-01-24T03:39:38.021Z,8.50
2018-01-24T03:42:05.710Z,8.50
2018-01-24T03:44:34.132Z,8.50
2018-01-24T03:47:01.846Z,8.40
2018-01-24T03:49:30.279Z,8.50
2018-01-24T03:51:57.970Z,8.40
2018-01-24T03:54:25.617Z,8.50
2018-01-24T03:56:53.318Z,8.40
2018-01-24T03:59:20.971Z,8.50
2018-01-24T04:01:49.422Z,8.50
2018-01-24T04:04:17.092Z,8.50
2018-01-24T04:06:45.566Z,8.40
2018-01-24T04:09:13.209Z,8.40
2018-01-24T04:11:40.894Z,8.50
2018-01-24T04:14:09.306Z,8.60
2018-01-24T04:16:37.034Z,8.50
2018-01-24T04:19:05.474Z,8.60
2018-01-24T04:21:33.162Z,8.50
2018-01-24T04:24:00.816Z,8.50
2018-01-24T04:26:28.508Z,8.60
2018-01-24T04:28:56.286Z,8.60
2018-01-24T04:31:23.987Z,8.60
2018-01-24T04:33:51.646Z,8.60
2018-01-24T04:36:19.357Z,8.60
2018-01-24T04:38:47.054Z,8.60
2018-01-24T04:41:14.761Z,8.60
2018-01-24T04:43:43.222Z,8.80
2018-01-24T04:46:11.701Z,8.80
2018-01-24T04:48:39.377Z,8.80
2018-01-24T04:51:07.963Z,8.80
2018-01-24T04:53:35.610Z,8.80
2018-01-24T04:56:04.130Z,8.80
2018-01-24T04:58:32.031Z,8.80
2018-01-24T05:01:00.677Z,8.80
2018-01-24T05:03:28.332Z,8.80
2018-01-24T05:05:57.317Z,8.80
2018-01-24T05:08:28.891Z,8.80
2018-01-24T05:10:57.462Z,8.80
2018-01-24T05:13:25.352Z,8.80
2018-01-24T05:15:53.449Z,8.80
2018-01-24T05:18:22.192Z,8.80
2018-01-24T05:21:00.772Z,9.00
2018-01-24T05:23:29.506Z,8.90
2018-01-24T05:25:58.086Z,8.90
2018-01-24T05:28:25.837Z,8.90
2018-01-24T05:30:53.519Z,8.90
2018-01-24T05:33:21.404Z,8.90
2018-01-24T05:35:49.879Z,9.00
2018-01-24T05:38:18.457Z,9.00
2018-01-24T05:40:46.890Z,9.00
2018-01-24T05:43:14.590Z,9.00
2018-01-24T05:45:43.017Z,9.00
2018-01-24T05:48:10.938Z,9.00
2018-01-24T05:50:39.386Z,9.00
2018-01-24T05:53:07.102Z,9.00
2018-01-24T05:55:34.753Z,9.10
2018-01-24T05:58:02.465Z,9.10
2018-01-24T06:00:30.143Z,9.00
2018-01-24T06:02:58.626Z,9.10
2018-01-24T06:05:27.081Z,9.10
2018-01-24T06:07:55.574Z,9.20
2018-01-24T06:10:23.252Z,9.10
2018-01-24T06:12:50.998Z,9.20
2018-01-24T06:15:18.682Z,9.10
2018-01-24T06:17:46.422Z,9.00
2018-01-24T06:20:14.917Z,9.10
2018-01-24T06:22:43.384Z,9.20
2018-01-24T06:25:11.811Z,9.20
2018-01-24T06:27:39.513Z,9.20
2018-01-24T06:30:07.994Z,9.20
2018-01-24T06:32:36.503Z,9.20
2018-01-24T06:35:04.174Z,9.20
2018-01-24T06:37:31.879Z,9.20
2018-01-24T06:39:59.590Z,9.20
2018-01-24T06:42:27.307Z,9.20
2018-01-24T06:44:54.967Z,9.30
2018-01-24T06:47:22.674Z,9.10
2018-01-24T06:49:50.347Z,9.10
2018-01-24T06:52:18.049Z,9.00
2018-01-24T06:54:45.698Z,9.00
2018-01-24T06:57:13.414Z,8.90
2018-01-24T06:59:41.243Z,8.90
2018-01-24T07:02:09.002Z,8.90
2018-01-24T07:04:37.425Z,9.00
2018-01-24T07:07:05.118Z,9.00
2018-01-24T07:09:32.782Z,9.00
2018-01-24T07:12:12.540Z,9.10
2018-01-24T07:14:44.537Z,9.10
2018-01-24T07:17:12.237Z,9.10
2018-01-24T07:19:39.957Z,9.00
2018-01-24T07:22:07.606Z,9.10
2018-01-24T07:24:35.299Z,9.10
2018-01-24T07:27:02.969Z,9.10
2018-01-24T07:29:30.654Z,9.10
2018-01-24T07:31:59.078Z,9.00
2018-01-24T07:34:26.786Z,9.00
2018-01-24T07:36:54.442Z,9.00
2018-01-24T07:39:22.184Z,9.00
2018-01-24T07:41:49.832Z,8.90
2018-01-24T07:44:17.518Z,9.00
2018-01-24T07:46:45.185Z,9.10
2018-01-24T07:49:12.897Z,9.00
2018-01-24T07:51:40.555Z,9.00
2018-01-24T07:54:08.249Z,9.00
2018-01-24T07:56:35.967Z,8.90
2018-01-24T07:59:03.716Z,9.10
2018-01-24T08:01:31.422Z,9.20
2018-01-24T08:03:59.200Z,9.20
2018-01-24T08:06:26.918Z,9.20
2018-01-24T08:08:54.650Z,9.20
2018-01-24T08:11:22.347Z,9.20
2018-01-24T08:13:50.042Z,9.30
2018-01-24T08:16:17.689Z,9.40
2018-01-24T08:18:45.378Z,9.50
2018-01-24T08:21:13.810Z,9.40
2018-01-24T08:23:41.980Z,9.40
2018-01-24T08:26:09.648Z,9.50
2018-01-24T08:28:37.330Z,9.50
2018-01-24T08:31:05.062Z,9.50
2018-01-24T08:33:32.770Z,9.50
2018-01-24T08:36:01.214Z,9.50
2018-01-24T08:38:28.902Z,9.50
2018-01-24T08:40:57.314Z,9.60
2018-01-24T08:43:25.048Z,9.50
2018-01-24T08:45:53.459Z,9.60
2018-01-24T08:48:21.154Z,9.60
2018-01-24T08:50:48.825Z,9.60
2018-01-24T08:53:16.526Z,9.60
2018-01-24T08:55:44.185Z,9.60
2018-01-24T08:58:11.887Z,9.60
2018-01-24T09:00:57.304Z,9.60
2018-01-24T09:03:42.621Z,9.70
2018-01-24T09:06:27.886Z,9.70
2018-01-24T09:09:13.436Z,9.60
2018-01-24T09:11:58.706Z,9.60
2018-01-24T09:14:44.067Z,9.60
2018-01-24T09:17:30.410Z,9.70
2018-01-24T09:20:15.878Z,9.70
2018-01-24T09:22:47.137Z,9.70
2018-01-24T09:25:14.850Z,9.70
2018-01-24T09:27:42.626Z,9.70
2018-01-24T09:30:10.578Z,9.70
2018-01-24T09:32:38.230Z,9.70
2018-01-24T09:35:06.719Z,9.70
2018-01-24T09:37:34.382Z,9.70
2018-01-24T09:40:02.168Z,9.70
2018-01-24T09:42:29.834Z,9.80
2018-01-24T09:44:57.567Z,9.70
2018-01-24T09:47:25.222Z,9.70
2018-01-24T09:49:52.926Z,9.70
2018-01-24T09:52:20.606Z,9.70
2018-01-24T09:54:48.337Z,9.80
2018-01-24T09:57:16.052Z,9.80
2018-01-24T09:59:44.576Z,9.80
2018-01-24T10:02:12.290Z,9.80
2018-01-24T10:04:41.066Z,9.90
2018-01-24T10:07:09.562Z,10.00
2018-01-24T10:09:37.275Z,10.00
2018-01-24T10:12:05.040Z,10.00
2018-01-24T10:14:32.713Z,10.10
2018-01-24T10:17:01.192Z,10.10
2018-01-24T10:19:28.894Z,10.10
2018-01-24T10:21:56.591Z,10.20
2018-01-24T10:24:24.290Z,10.30
2018-01-24T10:26:52.793Z,10.40
2018-01-24T10:29:20.448Z,10.30
2018-01-24T10:31:48.166Z,10.40
2018-01-24T10:34:15.847Z,10.60
2018-01-24T10:36:44.310Z,10.80
2018-01-24T10:39:12.817Z,10.90
2018-01-24T10:41:40.538Z,10.80
2018-01-24T10:44:08.225Z,10.90
2018-01-24T10:46:36.695Z,10.80
2018-01-24T10:49:05.128Z,10.80
2018-01-24T10:51:32.846Z,10.90
2018-01-24T10:54:00.506Z,11.00
2018-01-24T10:56:29.246Z,11.00
2018-01-24T10:58:56.969Z,11.00
2018-01-24T11:01:24.699Z,11.00
2018-01-24T11:03:53.134Z,11.00
2018-01-24T11:06:20.850Z,11.00
2018-01-24T11:08:48.516Z,11.00
2018-01-24T11:11:16.266Z,11.00
2018-01-24T11:13:43.968Z,11.00
2018-01-24T11:16:12.739Z,10.90
2018-01-24T11:18:40.659Z,10.90
2018-01-24T11:21:09.141Z,10.90
2018-01-24T11:23:37.566Z,10.90
2018-01-24T11:26:05.270Z,10.80
2018-01-24T11:28:32.958Z,10.90
2018-01-24T11:31:00.700Z,10.90
2018-01-24T11:33:29.131Z,10.90
2018-01-24T11:35:56.870Z,10.90
2018-01-24T11:38:24.530Z,10.90
2018-01-24T11:40:52.263Z,11.00
2018-01-24T11:43:20.695Z,11.00
2018-01-24T11:45:48.394Z,10.90
2018-01-24T11:48:16.824Z,11.00
2018-01-24T11:50:44.604Z,10.90
2018-01-24T11:53:12.288Z,11.00
2018-01-24T11:55:40.092Z,11.00
2018-01-24T11:58:07.791Z,11.00
2018-01-24T12:00:35.498Z,11.10
2018-01-24T12:03:03.171Z,11.10
2018-01-24T12:05:30.876Z,11.00
2018-01-24T12:07:58.542Z,11.00
2018-01-24T12:10:26.312Z,10.90
2018-01-24T12:12:53.974Z,10.90
2018-01-24T12:15:22.458Z,10.70
2018-01-24T12:17:50.952Z,10.70
2018-01-24T12:20:18.663Z,10.70
2018-01-24T12:22:46.360Z,10.80
2018-01-24T12:25:14.836Z,10.80
2018-01-24T12:27:43.289Z,10.90
2018-01-24T12:30:10.954Z,10.90
2018-01-24T12:32:38.690Z,11.00
2018-01-24T12:35:06.370Z,11.00
2018-01-24T12:37:34.075Z,11.00
2018-01-24T12:40:01.770Z,11.00
2018-01-24T12:42:29.486Z,11.00
2018-01-24T12:44:57.145Z,11.00
2018-01-24T12:47:24.830Z,11.20
2018-01-24T12:49:52.483Z,11.20
2018-01-24T12:52:20.182Z,11.20
2018-01-24T12:54:47.912Z,11.20
2018-01-24T12:57:15.606Z,11.30
2018-01-24T12:59:43.262Z,11.30
2018-01-24T13:02:10.957Z,11.30
2018-01-24T13:04:39.404Z,11.40
2018-01-24T13:07:07.098Z,11.40
2018-01-24T13:09:35.520Z,11.40
2018-01-24T13:12:04.207Z,11.40
2018-01-24T13:14:31.850Z,11.40
2018-01-24T13:16:59.550Z,11.40
2018-01-24T13:19:27.201Z,11.40
2018-01-24T13:21:54.902Z,11.40
2018-01-24T13:24:22.566Z,11.50
2018-01-24T13:26:50.250Z,11.40
2018-01-24T13:29:17.900Z,11.30
2018-01-24T13:31:45.602Z,11.40
2018-01-24T13:34:13.254Z,11.40
2018-01-24T13:36:40.982Z,11.40
2018-01-24T13:39:08.629Z,11.20
2018-01-24T13:41:36.322Z,11.30
2018-01-24T13:44:03.975Z,11.20
2018-01-24T13:46:31.658Z,11.30
2018-01-24T13:48:59.321Z,11.40
2018-01-24T13:51:27.020Z,11.30
2018-01-24T13:53:54.665Z,11.30
2018-01-24T13:56:23.167Z,11.20
2018-01-24T13:58:50.813Z,11.20
2018-01-24T14:01:18.512Z,11.30
2018-01-24T14:03:46.170Z,11.20
2018-01-24T14:06:13.883Z,11.30
2018-01-24T14:08:42.303Z,11.30
2018-01-24T14:11:09.994Z,11.30
2018-01-24T14:13:37.642Z,11.30
2018-01-24T14:16:05.338Z,11.30
2018-01-24T14:18:33.797Z,11.30
2018-01-24T14:21:01.498Z,11.30
2018-01-24T14:23:29.150Z,11.30
2018-01-24T14:25:56.838Z,11.30
2018-01-24T14:28:24.506Z,11.30
2018-01-24T14:30:52.219Z,11.40
2018-01-24T14:33:20.641Z,11.40
2018-01-24T14:35:49.173Z,11.40
2018-01-24T14:38:17.592Z,11.40
2018-01-24T14:40:45.293Z,11.40
2018-01-24T14:43:13.809Z,11.40
2018-01-24T14:45:41.454Z,11.40
2018-01-24T14:48:09.156Z,11.30
2018-01-24T14:50:36.813Z,11.30
2018-01-24T14:53:04.516Z,11.30
2018-01-24T14:55:32.929Z,11.30
2018-01-24T14:58:00.626Z,11.30
2018-01-24T15:00:28.285Z,11.30
2018-01-24T15:02:55.974Z,11.30
2018-01-24T15:05:24.406Z,11.30
2018-01-24T15:07:52.127Z,11.30
2018-01-24T15:10:19.805Z,11.30
2018-01-24T15:12:47.503Z,11.30
2018-01-24T15:15:15.153Z,11.30
2018-01-24T15:17:42.844Z,11.30
2018-01-24T15:20:11.278Z,11.40
2018-01-24T15:22:38.965Z,11.40
2018-01-24T15:25:06.613Z,11.30
2018-01-24T15:27:35.113Z,11.30
2018-01-24T15:30:02.770Z,11.30
2018-01-24T15:32:30.970Z,11.30
2018-01-24T15:34:58.649Z,11.30
2018-01-24T15:37:26.346Z,11.30
2018-01-24T15:39:54.018Z,11.30
2018-01-24T15:42:21.726Z,11.20
2018-01-24T15:44:49.385Z,11.30
2018-01-24T15:47:17.086Z,11.30
2018-01-24T15:49:44.747Z,11.30
2018-01-24T15:52:12.446Z,11.30
2018-01-24T15:54:40.102Z,11.30
2018-01-24T15:57:08.587Z,11.30
2018-01-24T15:59:36.251Z,11.30
2018-01-24T16:02:04.939Z,11.30
2018-01-24T16:04:32.590Z,11.30
2018-01-24T16:07:00.299Z,11.30
2018-01-24T16:09:27.978Z,11.40
2018-01-24T16:11:55.678Z,11.30
2018-01-24T16:14:23.343Z,11.30
2018-01-24T16:16:51.066Z,11.20
2018-01-24T16:19:19.568Z,11.30
2018-01-24T16:21:47.275Z,11.30
2018-01-24T16:24:14.938Z,11.20
2018-01-24T16:26:42.693Z,11.20
2018-01-24T16:29:14.361Z,11.30
2018-01-24T16:31:42.107Z,11.30
2018-01-24T16:34:09.762Z,11.40
2018-01-24T16:36:37.530Z,11.40
2018-01-24T16:39:05.206Z,11.30
2018-01-24T16:41:32.898Z,11.30
2018-01-24T16:44:00.563Z,11.40
2018-01-24T16:46:28.261Z,11.30
2018-01-24T16:48:55.941Z,11.30
2018-01-24T16:51:23.639Z,11.30
2018-01-24T16:53:51.291Z,11.30
2018-01-24T16:56:19.766Z,11.40
2018-01-24T16:58:48.176Z,11.50
2018-01-24T17:01:15.846Z,11.40
2018-01-24T17:03:43.545Z,11.40
2018-01-24T17:06:11.206Z,11.40
2018-01-24T17:08:39.689Z,11.50
2018-01-24T17:11:07.456Z,11.50
2018-01-24T17:13:35.948Z,11.40
2018-01-24T17:16:03.604Z,11.40
2018-01-24T17:18:32.061Z,11.40
2018-01-24T17:20:59.906Z,11.40
2018-01-24T17:23:27.614Z,11.40
2018-01-24T17:25:55.394Z,11.50
2018-01-24T17:28:23.249Z,11.40
2018-01-24T17:30:51.006Z,11.50
2018-01-24T17:33:18.747Z,11.50
2018-01-24T17:35:47.186Z,11.40
2018-01-24T17:38:14.936Z,11.40
2018-01-24T17:40:42.593Z,11.40
2018-01-24T17:43:10.322Z,11.30
2018-01-24T17:45:37.990Z,11.20
2018-01-24T17:48:05.690Z,11.30
2018-01-24T17:50:33.346Z,11.30
2018-01-24T17:53:01.048Z,11.20
2018-01-24T17:55:29.495Z,11.20
2018-01-24T17:57:57.511Z,11.20
2018-01-24T18:00:25.201Z,11.20
2018-01-24T18:02:53.084Z,11.10
2018-01-24T18:05:20.826Z,11.20
2018-01-24T18:07:48.540Z,11.10
2018-01-24T18:10:16.204Z,11.00
2018-01-24T18:12:43.904Z,11.00
2018-01-24T18:15:11.565Z,10.90
2018-01-24T18:17:39.272Z,10.90
2018-01-24T18:20:07.954Z,10.90
2018-01-24T18:22:36.422Z,10.90
2018-01-24T18:25:05.877Z,10.70
2018-01-24T18:27:33.794Z,10.60
2018-01-24T18:30:02.544Z,10.80
2018-01-24T18:32:30.400Z,10.80
2018-01-24T18:34:58.202Z,10.70
2018-01-24T18:37:26.725Z,10.70
2018-01-24T18:39:54.382Z,10.70
2018-01-24T18:42:22.078Z,10.60
2018-01-24T18:44:49.718Z,10.60
2018-01-24T18:47:18.184Z,10.70
2018-01-24T18:49:45.838Z,10.70
2018-01-24T18:52:14.745Z,10.70
2018-01-24T18:54:42.399Z,10.50
2018-01-24T18:57:10.342Z,10.60
2018-01-24T18:59:38.215Z,10.70
2018-01-24T19:02:05.888Z,10.70
2018-01-24T19:04:33.586Z,10.70
2018-01-24T19:07:01.744Z,10.70
2018-01-24T19:09:29.501Z,10.70
2018-01-24T19:12:02.881Z,10.60
2018-01-24T19:14:35.879Z,10.70
2018-01-24T19:17:04.437Z,10.60
2018-01-24T19:19:34.119Z,10.60
2018-01-24T19:22:01.793Z,10.40
2018-01-24T19:24:29.507Z,10.50
2018-01-24T19:26:57.954Z,10.50
2018-01-24T19:29:25.670Z,10.50
2018-01-24T19:31:53.326Z,10.60
2018-01-24T19:34:21.329Z,10.60
2018-01-24T19:36:49.134Z,10.50
2018-01-24T19:39:17.693Z,10.40
2018-01-24T19:41:45.382Z,10.30
2018-01-24T19:44:13.862Z,10.40
2018-01-24T19:46:42.453Z,10.30
2018-01-24T19:49:10.152Z,10.30
2018-01-24T19:51:37.919Z,10.40
2018-01-24T19:54:05.620Z,10.40
2018-01-24T19:56:34.046Z,10.40
2018-01-24T19:59:01.703Z,10.40
2018-01-24T20:01:29.909Z,10.30
2018-01-24T20:03:57.586Z,10.20
2018-01-24T20:06:26.067Z,10.30
2018-01-24T20:08:54.503Z,10.30
2018-01-24T20:11:22.203Z,10.30
2018-01-24T20:13:50.650Z,10.20
2018-01-24T20:16:18.374Z,10.20
2018-01-24T20:18:46.051Z,10.30
2018-01-24T20:21:13.765Z,10.40
2018-01-24T20:23:42.192Z,10.50
2018-01-24T20:26:09.906Z,10.40
2018-01-24T20:28:38.318Z,10.40
2018-01-24T20:31:06.015Z,10.40
2018-01-24T20:33:33.678Z,10.50
2018-01-24T20:36:01.384Z,10.50
2018-01-24T20:38:29.039Z,10.50
2018-01-24T20:40:56.748Z,10.60
2018-01-24T20:43:24.435Z,10.60
2018-01-24T20:45:52.914Z,10.70
2018-01-24T20:48:21.330Z,10.80
2018-01-24T20:50:49.400Z,10.80
2018-01-24T20:53:17.888Z,10.90
2018-01-24T20:55:45.622Z,10.90
2018-01-24T20:58:13.283Z,10.90
2018-01-24T21:00:41.008Z,11.00
2018-01-24T21:03:08.736Z,11.00
2018-01-24T21:05:36.431Z,11.10
2018-01-24T21:08:04.319Z,11.10
2018-01-24T21:10:32.862Z,11.20
2018-01-24T21:13:00.570Z,11.20
2018-01-24T21:15:28.305Z,11.20
2018-01-24T21:17:56.939Z,11.20
2018-01-24T21:20:24.997Z,11.20
2018-01-24T21:22:52.692Z,11.20
2018-01-24T21:25:20.370Z,11.20
2018-01-24T21:27:48.833Z,11.30
2018-01-24T21:30:22.520Z,11.30
2018-01-24T21:33:02.969Z,11.30
2018-01-24T21:35:42.658Z,11.30
2018-01-24T21:38:11.131Z,11.30
2018-01-24T21:40:39.555Z,11.30
2018-01-24T21:43:07.258Z,11.30
2018-01-24T21:45:34.919Z,11.30
2018-01-24T21:48:02.613Z,11.20
2018-01-24T21:50:30.263Z,11.20
2018-01-24T21:52:57.967Z,11.20
2018-01-24T21:55:26.391Z,11.00
2018-01-24T21:57:55.620Z,11.00
2018-01-24T22:00:23.497Z,11.00
2018-01-24T22:02:52.097Z,11.00
2018-01-24T22:05:19.740Z,10.90
2018-01-24T22:07:47.438Z,10.90
2018-01-24T22:10:15.872Z,11.00
2018-01-24T22:12:43.621Z,11.00
2018-01-24T22:15:11.271Z,11.00
2018-01-24T22:17:39.950Z,10.90
2018-01-24T22:20:07.625Z,10.90
2018-01-24T22:22:35.290Z,11.00
2018-01-24T22:25:02.989Z,11.00
2018-01-24T22:27:30.665Z,10.90
2018-01-24T22:29:59.864Z,11.00
2018-01-24T22:32:28.291Z,11.00
2018-01-24T22:34:55.999Z,11.00
2018-01-24T22:37:24.419Z,11.00
2018-01-24T22:39:52.180Z,11.00
2018-01-24T22:42:19.838Z,11.00
2018-01-24T22:44:47.594Z,11.00
2018-01-24T22:47:15.266Z,11.00
2018-01-24T22:49:42.978Z,11.00
2018-01-24T22:52:11.403Z,11.00
2018-01-24T22:54:39.135Z,11.10
2018-01-24T22:57:06.814Z,11.00
2018-01-24T22:59:34.562Z,11.00
2018-01-24T23:02:02.225Z,11.00
2018-01-24T23:04:29.948Z,11.00
2018-01-24T23:06:58.366Z,11.00
2018-01-24T23:09:26.071Z,11.00
2018-01-24T23:11:53.734Z,11.00
2018-01-24T23:14:21.438Z,11.00
2018-01-24T23:16:49.114Z,11.00
2018-01-24T23:19:16.826Z,11.00
2018-01-24T23:21:45.251Z,11.00
2018-01-24T23:24:13.024Z,11.00
2018-01-24T23:26:40.680Z,11.00
2018-01-24T23:29:08.330Z,11.00
2018-01-24T23:31:36.039Z,11.00
2018-01-24T23:34:04.478Z,11.00
2018-01-24T23:36:32.194Z,10.90
2018-01-24T23:39:00.638Z,10.90
2018-01-24T23:41:28.346Z,10.90
2018-01-24T23:43:56.026Z,10.90
2018-01-24T23:46:23.726Z,10.90
2018-01-24T23:48:51.399Z,10.90
2018-01-24T23:51:19.882Z,10.90
2018-01-24T23:53:48.310Z,10.80
2018-01-24T23:56:16.018Z,10.80
2018-01-24T23:58:44.448Z,10.80
